createdAt,value
2019-05-16T00:04:28.408Z,6.97
2019-05-16T00:09:52.862Z,11.47
2019-05-16T00:15:18.227Z,9.10
2019-05-16T00:20:42.732Z,8.00
2019-05-16T00:26:07.833Z,9.27
2019-05-16T00:31:31.687Z,8.57
2019-05-16T00:36:58.161Z,10.70
2019-05-16T00:42:22.642Z,12.57
2019-05-16T00:47:47.957Z,8.77
2019-05-16T00:53:12.161Z,10.50
2019-05-16T00:58:37.999Z,12.10
2019-05-16T01:04:02.305Z,10.23
2019-05-16T01:09:28.135Z,7.77
2019-05-16T01:14:51.533Z,10.43
2019-05-16T01:20:16.139Z,10.53
2019-05-16T01:25:40.933Z,13.37
2019-05-16T01:31:04.882Z,16.87
2019-05-16T01:36:36.678Z,14.63
2019-05-16T01:41:54.218Z,14.93
2019-05-16T01:47:18.789Z,15.03
2019-05-16T01:52:44.303Z,14.23
2019-05-16T01:58:08.680Z,14.30
2019-05-16T02:03:33.063Z,13.80
2019-05-16T02:08:57.930Z,18.07
2019-05-16T02:14:22.978Z,13.03
2019-05-16T02:19:48.575Z,16.17
2019-05-16T02:25:18.592Z,20.77
2019-05-16T02:30:42.348Z,17.00
2019-05-16T02:36:06.180Z,25.43
2019-05-16T02:41:31.170Z,24.57
2019-05-16T02:46:55.748Z,18.77
2019-05-16T02:52:21.733Z,18.70
2019-05-16T02:57:46.260Z,25.47
2019-05-16T03:03:11.996Z,21.50
2019-05-16T03:08:40.610Z,20.50
2019-05-16T03:14:04.864Z,22.70
2019-05-16T03:19:31.166Z,23.80
2019-05-16T03:24:56.023Z,20.70
2019-05-16T03:30:23.876Z,17.13
2019-05-16T03:35:45.812Z,19.23
2019-05-16T03:41:11.582Z,41.07
2019-05-16T03:46:37.368Z,17.00
2019-05-16T03:52:02.075Z,17.73
2019-05-16T03:57:26.742Z,17.37
2019-05-16T04:02:52.400Z,14.27
2019-05-16T04:08:22.055Z,19.37
2019-05-16T04:13:43.808Z,12.23
2019-05-16T04:19:11.510Z,16.87
2019-05-16T04:24:34.429Z,21.07
2019-05-16T04:30:01.415Z,20.87
2019-05-16T04:35:23.305Z,15.07
2019-05-16T04:40:51.314Z,14.23
2019-05-16T04:46:14.474Z,14.37
2019-05-16T04:51:41.245Z,10.60
2019-05-16T04:57:03.845Z,11.27
2019-05-16T05:02:30.956Z,11.30
2019-05-16T05:07:53.599Z,12.30
2019-05-16T05:13:17.144Z,10.73
2019-05-16T05:18:41.960Z,10.13
2019-05-16T05:24:06.571Z,12.60
2019-05-16T05:29:30.814Z,9.27
2019-05-16T05:34:55.218Z,13.30
2019-05-16T05:40:20.378Z,13.57
2019-05-16T05:45:45.212Z,12.80
2019-05-16T05:51:11.289Z,10.60
2019-05-16T05:56:34.433Z,9.83
2019-05-16T06:02:00.845Z,13.67
2019-05-16T06:07:24.835Z,10.97
2019-05-16T06:12:50.139Z,36.90
2019-05-16T06:18:14.641Z,14.77
2019-05-16T06:23:40.312Z,13.10
2019-05-16T06:29:05.421Z,12.00
2019-05-16T06:34:30.161Z,12.60
2019-05-16T06:39:54.275Z,11.17
2019-05-16T06:45:20.466Z,11.87
2019-05-16T06:50:45.749Z,10.03
2019-05-16T06:56:10.612Z,7.37
2019-05-16T07:01:35.955Z,10.37
2019-05-16T07:07:03.040Z,7.13
2019-05-16T07:12:26.994Z,8.10
2019-05-16T07:17:50.841Z,7.73
2019-05-16T07:23:15.880Z,9.20
2019-05-16T07:28:40.750Z,6.90
2019-05-16T07:34:04.452Z,7.63
2019-05-16T07:39:30.666Z,6.83
2019-05-16T07:44:55.176Z,7.93
2019-05-16T07:50:20.678Z,7.37
2019-05-16T07:55:44.637Z,7.70
2019-05-16T08:01:12.415Z,8.17
2019-05-16T08:06:34.483Z,11.10
2019-05-16T08:11:58.538Z,9.93
2019-05-16T08:17:23.177Z,14.37
2019-05-16T08:22:50.539Z,12.97
2019-05-16T08:28:13.210Z,19.10
2019-05-16T08:33:41.653Z,16.77
2019-05-16T08:39:06.589Z,23.93
2019-05-16T08:44:32.514Z,24.30
2019-05-16T08:49:57.267Z,19.77
2019-05-16T08:55:21.914Z,18.47
2019-05-16T09:00:45.504Z,24.20
2019-05-16T09:06:11.816Z,23.07
2019-05-16T09:11:44.109Z,20.37
2019-05-16T09:17:01.786Z,16.73
2019-05-16T09:22:28.252Z,15.87
2019-05-16T09:27:52.191Z,19.13
2019-05-16T09:33:17.631Z,17.90
2019-05-16T09:38:41.985Z,16.43
2019-05-16T09:44:08.663Z,14.53
2019-05-16T09:49:33.230Z,17.20
2019-05-16T09:54:57.945Z,11.97
2019-05-16T10:00:26.716Z,9.77
2019-05-16T10:05:49.563Z,10.20
2019-05-16T10:11:13.665Z,12.97
2019-05-16T10:16:37.636Z,14.37
2019-05-16T10:22:02.318Z,10.80
2019-05-16T10:27:26.635Z,11.17
2019-05-16T10:32:50.412Z,9.37
2019-05-16T10:38:15.076Z,9.00
2019-05-16T10:43:38.716Z,6.80
2019-05-16T10:49:04.274Z,7.57
2019-05-16T10:54:28.016Z,9.20
2019-05-16T11:00:05.185Z,10.90
2019-05-16T11:05:29.382Z,13.67
2019-05-16T11:10:42.890Z,11.17
2019-05-16T11:16:07.022Z,7.30
2019-05-16T11:21:32.012Z,10.83
2019-05-16T11:26:56.809Z,8.17
2019-05-16T11:32:21.693Z,8.43
2019-05-16T11:37:47.349Z,9.07
2019-05-16T11:43:18.240Z,10.50
2019-05-16T11:48:38.578Z,9.07
2019-05-16T11:54:03.069Z,9.73
2019-05-16T11:59:27.659Z,8.40
2019-05-16T12:04:51.927Z,9.13
2019-05-16T12:10:17.104Z,9.53
2019-05-16T12:15:40.763Z,8.10
2019-05-16T12:21:07.312Z,10.37
2019-05-16T12:26:30.642Z,10.23
2019-05-16T12:31:59.641Z,10.40
2019-05-16T12:37:20.203Z,13.00
2019-05-16T12:42:46.981Z,10.77
2019-05-16T12:48:11.571Z,12.97
2019-05-16T12:53:36.721Z,13.10
2019-05-16T12:59:00.736Z,16.20
2019-05-16T13:04:27.676Z,14.27
2019-05-16T13:09:50.372Z,14.73
2019-05-16T13:15:14.596Z,17.97
2019-05-16T13:20:41.254Z,18.43
2019-05-16T13:26:06.699Z,19.63
2019-05-16T13:31:29.562Z,17.00
2019-05-16T13:36:54.126Z,18.80
2019-05-16T13:42:19.601Z,19.93
2019-05-16T13:47:44.257Z,18.93
2019-05-16T13:53:08.584Z,17.83
2019-05-16T13:58:33.270Z,17.93
2019-05-16T14:03:57.434Z,21.57
2019-05-16T14:09:21.282Z,19.97
2019-05-16T14:14:47.863Z,20.10
2019-05-16T14:20:15.051Z,21.67
2019-05-16T14:25:39.750Z,23.00
2019-05-16T14:31:07.005Z,23.00
2019-05-16T14:36:29.755Z,23.50
2019-05-16T14:41:56.446Z,24.63
2019-05-16T14:47:19.476Z,24.47
2019-05-16T14:52:43.170Z,26.03
2019-05-16T14:58:07.703Z,28.20
2019-05-16T15:03:32.048Z,22.63
2019-05-16T15:08:56.813Z,22.83
2019-05-16T15:14:22.376Z,19.87
2019-05-16T15:19:46.757Z,22.53
2019-05-16T15:25:11.110Z,22.83
2019-05-16T15:30:39.126Z,28.53
2019-05-16T15:36:00.767Z,25.50
2019-05-16T15:41:27.165Z,22.40
2019-05-16T15:46:51.510Z,24.17
2019-05-16T15:52:16.994Z,21.07
2019-05-16T15:57:41.398Z,20.00
2019-05-16T16:03:06.978Z,21.00
2019-05-16T16:08:31.227Z,23.20
2019-05-16T16:13:57.532Z,24.77
2019-05-16T16:19:22.553Z,20.87
2019-05-16T16:24:47.866Z,22.93
2019-05-16T16:30:12.797Z,22.43
2019-05-16T16:35:37.890Z,21.83
2019-05-16T16:41:02.898Z,24.00
2019-05-16T16:46:27.438Z,20.80
2019-05-16T16:51:51.148Z,18.77
2019-05-16T16:57:17.737Z,21.83
2019-05-16T17:02:42.035Z,17.73
2019-05-16T17:08:07.633Z,18.70
2019-05-16T17:13:31.613Z,15.13
2019-05-16T17:18:56.865Z,17.13
2019-05-16T17:24:21.293Z,18.40
2019-05-16T17:29:47.329Z,17.13
2019-05-16T17:35:10.931Z,20.37
2019-05-16T17:40:38.102Z,22.43
2019-05-16T17:46:01.674Z,19.20
2019-05-16T17:51:26.244Z,21.30
2019-05-16T17:56:50.688Z,23.03
2019-05-16T18:02:17.261Z,22.57
2019-05-16T18:07:41.214Z,22.93
2019-05-16T18:13:07.443Z,22.20
2019-05-16T18:18:30.695Z,26.07
2019-05-16T18:23:55.524Z,22.90
2019-05-16T18:29:21.148Z,27.40
2019-05-16T18:34:45.648Z,27.23
2019-05-16T18:40:09.936Z,32.50
2019-05-16T18:45:36.510Z,34.50
2019-05-16T18:50:59.696Z,36.17
2019-05-16T18:56:27.033Z,33.30
2019-05-16T19:01:50.028Z,31.37
2019-05-16T19:07:13.940Z,33.67
2019-05-16T19:12:38.046Z,32.83
2019-05-16T19:18:02.335Z,36.43
2019-05-16T19:23:26.962Z,32.10
2019-05-16T19:28:51.515Z,33.93
2019-05-16T19:34:16.284Z,28.63
2019-05-16T19:39:40.051Z,28.07
2019-05-16T19:45:05.422Z,32.13
2019-05-16T19:50:30.293Z,29.23
2019-05-16T19:55:56.594Z,32.53
2019-05-16T20:01:21.030Z,25.30
2019-05-16T20:06:47.510Z,29.07
2019-05-16T20:12:11.131Z,27.30
2019-05-16T20:17:37.762Z,39.30
2019-05-16T20:23:00.740Z,48.53
2019-05-16T20:28:26.691Z,52.03
2019-05-16T20:33:50.733Z,74.17
2019-05-16T20:39:17.233Z,72.90
2019-05-16T20:44:41.417Z,79.37
2019-05-16T20:50:07.651Z,97.90
2019-05-16T20:55:32.897Z,94.23
2019-05-16T21:01:01.290Z,100.33
2019-05-16T21:06:23.853Z,84.00
2019-05-16T21:11:50.077Z,83.20
2019-05-16T21:17:17.430Z,94.63
2019-05-16T21:22:41.651Z,81.37
2019-05-16T21:28:07.949Z,101.43
2019-05-16T21:33:32.904Z,77.17
2019-05-16T21:38:57.480Z,91.70
2019-05-16T21:44:23.112Z,72.37
2019-05-16T21:49:47.872Z,69.33
2019-05-16T21:55:12.407Z,81.33
2019-05-16T22:00:47.507Z,105.77
2019-05-16T22:06:11.265Z,105.90
2019-05-16T22:11:37.070Z,89.47
2019-05-16T22:17:01.259Z,98.73
2019-05-16T22:22:29.758Z,112.20
2019-05-16T22:27:51.693Z,90.43
2019-05-16T22:33:17.943Z,74.53
2019-05-16T22:38:42.431Z,89.17
2019-05-16T22:44:08.854Z,75.27
2019-05-16T22:49:32.643Z,117.33
2019-05-16T22:54:58.280Z,127.77
2019-05-16T23:00:26.806Z,374.90
2019-05-16T23:05:50.852Z,362.10
2019-05-16T23:11:16.369Z,707.17
2019-05-16T23:16:39.971Z,525.80
2019-05-16T23:22:07.496Z,499.97
2019-05-16T23:27:31.737Z,660.97
2019-05-16T23:32:56.319Z,611.80
2019-05-16T23:38:20.304Z,613.73
2019-05-16T23:43:46.774Z,741.53
2019-05-16T23:49:10.312Z,764.43
2019-05-16T23:54:34.194Z,700.17
2019-05-16T23:59:59.044Z,478.97
